sensor_id;sensor_type;location;lat;lon;timestamp;pressure;altitude;pressure_sealevel;temperature;humidity
59009;BME280;44794;42.652;23.318;2023-06-26T00:00:03;94288.78;;;19.50;100.00
59009;BME280;44794;42.652;23.318;2023-06-26T00:02:30;94289.78;;;19.49;100.00
59009;BME280;44794;42.652;23.318;2023-06-26T00:05:00;94281.41;;;19.45;100.00
59009;BME280;44794;42.652;23.318;2023-06-26T00:07:30;94287.38;;;19.39;100.00
59009;BME280;44794;42.652;23.318;2023-06-26T00:09:59;94278.78;;;19.45;100.00
59009;BME280;44794;42.652;23.318;2023-06-26T00:12:25;94283.88;;;19.47;100.00
59009;BME280;44794;42.652;23.318;2023-06-26T00:14:50;94275.19;;;19.38;100.00
59009;BME280;44794;42.652;23.318;2023-06-26T00:17:16;94276.84;;;19.39;100.00
59009;BME280;44794;42.652;23.318;2023-06-26T00:19:41;94279.44;;;19.47;100.00
59009;BME280;44794;42.652;23.318;2023-06-26T00:22:07;94276.50;;;19.42;100.00
59009;BME280;44794;42.652;23.318;2023-06-26T00:24:32;94275.44;;;19.51;100.00
59009;BME280;44794;42.652;23.318;2023-06-26T00:26:57;94280.66;;;19.37;100.00
59009;BME280;44794;42.652;23.318;2023-06-26T00:29:24;94277.31;;;19.43;100.00
59009;BME280;44794;42.652;23.318;2023-06-26T00:31:49;94275.84;;;19.40;100.00
59009;BME280;44794;42.652;23.318;2023-06-26T00:34:15;94265.72;;;19.29;100.00
59009;BME280;44794;42.652;23.318;2023-06-26T00:36:40;94269.19;;;19.22;100.00
59009;BME280;44794;42.652;23.318;2023-06-26T00:39:09;94266.09;;;19.18;100.00
59009;BME280;44794;42.652;23.318;2023-06-26T00:41:36;94267.22;;;19.24;100.00
59009;BME280;44794;42.652;23.318;2023-06-26T00:44:01;94262.75;;;19.24;100.00
59009;BME280;44794;42.652;23.318;2023-06-26T00:46:27;94265.59;;;19.15;100.00
59009;BME280;44794;42.652;23.318;2023-06-26T00:48:52;94262.97;;;19.15;100.00
59009;BME280;44794;42.652;23.318;2023-06-26T00:51:19;94257.38;;;19.18;100.00
59009;BME280;44794;42.652;23.318;2023-06-26T00:53:45;94255.59;;;19.10;100.00
59009;BME280;44794;42.652;23.318;2023-06-26T00:56:11;94252.31;;;19.08;100.00
59009;BME280;44794;42.652;23.318;2023-06-26T00:58:36;94253.78;;;19.03;100.00
59009;BME280;44794;42.652;23.318;2023-06-26T01:01:02;94254.59;;;19.11;100.00
59009;BME280;44794;42.652;23.318;2023-06-26T01:03:28;94250.00;;;19.05;100.00
59009;BME280;44794;42.652;23.318;2023-06-26T01:05:56;94238.66;;;19.05;100.00
59009;BME280;44794;42.652;23.318;2023-06-26T01:08:23;94244.72;;;19.05;100.00
59009;BME280;44794;42.652;23.318;2023-06-26T01:10:49;94239.47;;;19.05;100.00
59009;BME280;44794;42.652;23.318;2023-06-26T01:13:15;94237.63;;;19.06;100.00
59009;BME280;44794;42.652;23.318;2023-06-26T01:15:41;94229.97;;;18.96;100.00
59009;BME280;44794;42.652;23.318;2023-06-26T01:18:07;94231.31;;;18.92;100.00
59009;BME280;44794;42.652;23.318;2023-06-26T01:20:36;94220.81;;;18.84;100.00
59009;BME280;44794;42.652;23.318;2023-06-26T01:23:22;94225.41;;;18.83;100.00
59009;BME280;44794;42.652;23.318;2023-06-26T01:26:05;94217.91;;;18.72;100.00
59009;BME280;44794;42.652;23.318;2023-06-26T01:28:33;94221.06;;;18.67;100.00
59009;BME280;44794;42.652;23.318;2023-06-26T01:31:00;94219.44;;;18.58;100.00
59009;BME280;44794;42.652;23.318;2023-06-26T01:33:26;94204.34;;;18.52;100.00
59009;BME280;44794;42.652;23.318;2023-06-26T01:35:52;94208.91;;;18.58;100.00
59009;BME280;44794;42.652;23.318;2023-06-26T01:38:19;94209.09;;;18.57;100.00
59009;BME280;44794;42.652;23.318;2023-06-26T01:40:46;94204.84;;;18.48;100.00
59009;BME280;44794;42.652;23.318;2023-06-26T01:45:51;94206.97;;;18.52;100.00
59009;BME280;44794;42.652;23.318;2023-06-26T01:48:23;94201.56;;;18.46;100.00
59009;BME280;44794;42.652;23.318;2023-06-26T01:50:52;94202.22;;;18.40;100.00
59009;BME280;44794;42.652;23.318;2023-06-26T01:53:21;94194.69;;;18.37;100.00
59009;BME280;44794;42.652;23.318;2023-06-26T01:56:07;94194.81;;;18.43;100.00
59009;BME280;44794;42.652;23.318;2023-06-26T01:58:43;94201.09;;;18.42;100.00
59009;BME280;44794;42.652;23.318;2023-06-26T02:01:11;94205.50;;;18.42;100.00
59009;BME280;44794;42.652;23.318;2023-06-26T02:03:37;94211.56;;;18.50;100.00
59009;BME280;44794;42.652;23.318;2023-06-26T02:06:02;94213.00;;;18.61;100.00
59009;BME280;44794;42.652;23.318;2023-06-26T02:08:27;94214.31;;;18.65;100.00
59009;BME280;44794;42.652;23.318;2023-06-26T02:10:53;94210.38;;;18.61;100.00
59009;BME280;44794;42.652;23.318;2023-06-26T02:13:18;94209.72;;;18.67;100.00
59009;BME280;44794;42.652;23.318;2023-06-26T02:15:44;94208.41;;;18.63;100.00
59009;BME280;44794;42.652;23.318;2023-06-26T02:18:09;94212.19;;;18.60;100.00
59009;BME280;44794;42.652;23.318;2023-06-26T02:20:35;94217.97;;;18.56;100.00
59009;BME280;44794;42.652;23.318;2023-06-26T02:23:01;94221.72;;;18.61;100.00
59009;BME280;44794;42.652;23.318;2023-06-26T02:25:26;94220.09;;;18.60;100.00
59009;BME280;44794;42.652;23.318;2023-06-26T02:27:51;94218.94;;;18.63;100.00
59009;BME280;44794;42.652;23.318;2023-06-26T02:30:17;94226.16;;;18.61;100.00
59009;BME280;44794;42.652;23.318;2023-06-26T02:32:42;94217.13;;;18.63;100.00
59009;BME280;44794;42.652;23.318;2023-06-26T02:35:08;94224.84;;;18.65;100.00
59009;BME280;44794;42.652;23.318;2023-06-26T02:37:34;94213.19;;;18.59;100.00
59009;BME280;44794;42.652;23.318;2023-06-26T02:39:59;94224.38;;;18.53;100.00
59009;BME280;44794;42.652;23.318;2023-06-26T02:42:24;94223.56;;;18.53;100.00
59009;BME280;44794;42.652;23.318;2023-06-26T02:44:50;94227.81;;;18.54;100.00
59009;BME280;44794;42.652;23.318;2023-06-26T02:47:15;94217.84;;;18.49;100.00
59009;BME280;44794;42.652;23.318;2023-06-26T02:49:41;94216.00;;;18.58;100.00
59009;BME280;44794;42.652;23.318;2023-06-26T02:52:06;94225.16;;;18.62;100.00
59009;BME280;44794;42.652;23.318;2023-06-26T02:54:32;94224.84;;;18.65;100.00
59009;BME280;44794;42.652;23.318;2023-06-26T02:56:57;94228.78;;;18.61;100.00
59009;BME280;44794;42.652;23.318;2023-06-26T02:59:24;94226.50;;;18.66;100.00
59009;BME280;44794;42.652;23.318;2023-06-26T03:01:50;94234.72;;;18.63;100.00
59009;BME280;44794;42.652;23.318;2023-06-26T03:04:15;94234.03;;;18.69;100.00
59009;BME280;44794;42.652;23.318;2023-06-26T03:06:43;94233.25;;;18.60;100.00
59009;BME280;44794;42.652;23.318;2023-06-26T03:09:08;94234.03;;;18.61;100.00
59009;BME280;44794;42.652;23.318;2023-06-26T03:11:34;94233.25;;;18.60;100.00
59009;BME280;44794;42.652;23.318;2023-06-26T03:13:59;94239.19;;;18.54;100.00
59009;BME280;44794;42.652;23.318;2023-06-26T03:16:24;94239.16;;;18.62;100.00
59009;BME280;44794;42.652;23.318;2023-06-26T03:18:50;94244.06;;;18.65;100.00
59009;BME280;44794;42.652;23.318;2023-06-26T03:21:17;94248.94;;;18.84;100.00
59009;BME280;44794;42.652;23.318;2023-06-26T03:23:42;94247.06;;;19.00;100.00
59009;BME280;44794;42.652;23.318;2023-06-26T03:26:08;94250.97;;;19.04;100.00
59009;BME280;44794;42.652;23.318;2023-06-26T03:28:33;94246.09;;;19.01;100.00
59009;BME280;44794;42.652;23.318;2023-06-26T03:30:59;94256.28;;;18.96;100.00
59009;BME280;44794;42.652;23.318;2023-06-26T03:33:24;94246.13;;;18.85;100.00
59009;BME280;44794;42.652;23.318;2023-06-26T03:35:50;94246.47;;;18.83;100.00
59009;BME280;44794;42.652;23.318;2023-06-26T03:38:16;94251.75;;;18.75;100.00
59009;BME280;44794;42.652;23.318;2023-06-26T03:40:41;94245.88;;;18.73;100.00
59009;BME280;44794;42.652;23.318;2023-06-26T03:43:07;94254.38;;;18.83;100.00
59009;BME280;44794;42.652;23.318;2023-06-26T03:45:32;94252.59;;;18.75;100.00
59009;BME280;44794;42.652;23.318;2023-06-26T03:47:57;94253.25;;;18.77;100.00
59009;BME280;44794;42.652;23.318;2023-06-26T03:50:23;94252.91;;;18.72;100.00
59009;BME280;44794;42.652;23.318;2023-06-26T03:52:48;94244.22;;;18.72;100.00
59009;BME280;44794;42.652;23.318;2023-06-26T03:55:15;94249.13;;;18.75;100.00
59009;BME280;44794;42.652;23.318;2023-06-26T03:57:41;94241.78;;;18.70;100.00
59009;BME280;44794;42.652;23.318;2023-06-26T04:00:07;94247.19;;;18.69;100.00
59009;BME280;44794;42.652;23.318;2023-06-26T04:02:36;94247.50;;;18.74;100.00
59009;BME280;44794;42.652;23.318;2023-06-26T04:05:02;94249.56;;;18.94;100.00
59009;BME280;44794;42.652;23.318;2023-06-26T04:07:29;94251.38;;;19.32;100.00
59009;BME280;44794;42.652;23.318;2023-06-26T04:09:56;94250.97;;;19.65;100.00
59009;BME280;44794;42.652;23.318;2023-06-26T04:12:22;94265.75;;;19.74;100.00
59009;BME280;44794;42.652;23.318;2023-06-26T04:14:47;94271.63;;;19.84;100.00
59009;BME280;44794;42.652;23.318;2023-06-26T04:17:13;94276.31;;;19.96;100.00
59009;BME280;44794;42.652;23.318;2023-06-26T04:19:38;94273.50;;;20.20;100.00
59009;BME280;44794;42.652;23.318;2023-06-26T04:22:03;94280.81;;;20.33;100.00
59009;BME280;44794;42.652;23.318;2023-06-26T04:24:29;94295.94;;;20.53;100.00
59009;BME280;44794;42.652;23.318;2023-06-26T04:26:54;94299.75;;;20.87;100.00
59009;BME280;44794;42.652;23.318;2023-06-26T04:29:23;94303.56;;;21.42;100.00
59009;BME280;44794;42.652;23.318;2023-06-26T04:31:51;94322.75;;;22.00;100.00
59009;BME280;44794;42.652;23.318;2023-06-26T04:34:16;94319.63;;;22.53;98.62
59009;BME280;44794;42.652;23.318;2023-06-26T04:36:42;94327.44;;;22.40;98.62
59009;BME280;44794;42.652;23.318;2023-06-26T04:39:13;94323.91;;;23.02;94.50
59009;BME280;44794;42.652;23.318;2023-06-26T04:41:40;94341.28;;;23.85;87.84
59009;BME280;44794;42.652;23.318;2023-06-26T04:44:05;94348.16;;;24.39;82.37
59009;BME280;44794;42.652;23.318;2023-06-26T04:46:31;94351.69;;;23.87;82.06
59009;BME280;44794;42.652;23.318;2023-06-26T04:48:56;94351.31;;;23.56;86.15
59009;BME280;44794;42.652;23.318;2023-06-26T04:51:26;94352.84;;;23.38;86.21
59009;BME280;44794;42.652;23.318;2023-06-26T04:53:52;94344.78;;;23.18;90.67
59009;BME280;44794;42.652;23.318;2023-06-26T04:56:17;94337.47;;;23.60;86.62
59009;BME280;44794;42.652;23.318;2023-06-26T04:58:43;94336.09;;;23.31;88.98
59009;BME280;44794;42.652;23.318;2023-06-26T05:01:08;94336.94;;;23.38;89.51
59009;BME280;44794;42.652;23.318;2023-06-26T05:03:34;94338.53;;;23.72;85.88
59009;BME280;44794;42.652;23.318;2023-06-26T05:06:00;94345.16;;;24.55;80.93
59009;BME280;44794;42.652;23.318;2023-06-26T05:08:26;94348.66;;;23.90;81.87
59009;BME280;44794;42.652;23.318;2023-06-26T05:10:52;94340.47;;;23.11;87.73
59009;BME280;44794;42.652;23.318;2023-06-26T05:13:18;94337.75;;;22.77;92.88
59009;BME280;44794;42.652;23.318;2023-06-26T05:15:44;94334.97;;;22.01;95.80
59009;BME280;44794;42.652;23.318;2023-06-26T05:18:10;94334.53;;;21.34;100.00
59009;BME280;44794;42.652;23.318;2023-06-26T05:20:36;94339.53;;;21.58;100.00
59009;BME280;44794;42.652;23.318;2023-06-26T05:23:02;94340.78;;;22.53;98.71
59009;BME280;44794;42.652;23.318;2023-06-26T05:25:29;94361.81;;;22.82;92.67
59009;BME280;44794;42.652;23.318;2023-06-26T05:27:58;94345.72;;;22.56;95.46
59009;BME280;44794;42.652;23.318;2023-06-26T05:30:25;94353.53;;;22.43;96.96
59009;BME280;44794;42.652;23.318;2023-06-26T05:32:51;94346.59;;;22.63;96.69
59009;BME280;44794;42.652;23.318;2023-06-26T05:35:17;94358.00;;;23.12;92.51
59009;BME280;44794;42.652;23.318;2023-06-26T05:37:43;94360.09;;;22.95;91.63
59009;BME280;44794;42.652;23.318;2023-06-26T05:40:09;94363.84;;;22.59;94.06
59009;BME280;44794;42.652;23.318;2023-06-26T05:42:35;94358.41;;;22.25;98.04
59009;BME280;44794;42.652;23.318;2023-06-26T05:45:01;94351.56;;;21.95;100.00
59009;BME280;44794;42.652;23.318;2023-06-26T05:47:26;94356.16;;;22.22;98.31
59009;BME280;44794;42.652;23.318;2023-06-26T05:49:52;94354.09;;;22.03;100.00
59009;BME280;44794;42.652;23.318;2023-06-26T05:52:17;94358.53;;;22.17;100.00
59009;BME280;44794;42.652;23.318;2023-06-26T05:54:43;94367.94;;;22.41;99.41
59009;BME280;44794;42.652;23.318;2023-06-26T05:57:09;94357.69;;;21.96;100.00
59009;BME280;44794;42.652;23.318;2023-06-26T05:59:36;94363.44;;;22.20;100.00
59009;BME280;44794;42.652;23.318;2023-06-26T06:02:04;94362.72;;;22.47;97.14
59009;BME280;44794;42.652;23.318;2023-06-26T06:04:30;94369.75;;;22.19;95.60
59009;BME280;44794;42.652;23.318;2023-06-26T06:06:55;94376.13;;;23.42;87.34
59009;BME280;44794;42.652;23.318;2023-06-26T06:09:21;94385.72;;;24.30;79.02
59009;BME280;44794;42.652;23.318;2023-06-26T06:11:46;94379.47;;;24.57;78.79
59009;BME280;44794;42.652;23.318;2023-06-26T06:14:11;94401.84;;;26.16;69.21
59009;BME280;44794;42.652;23.318;2023-06-26T06:16:37;94399.13;;;27.76;59.25
59009;BME280;44794;42.652;23.318;2023-06-26T06:19:03;94400.88;;;28.00;56.08
59009;BME280;44794;42.652;23.318;2023-06-26T06:21:29;94398.97;;;26.61;60.14
59009;BME280;44794;42.652;23.318;2023-06-26T06:23:55;94390.69;;;26.75;59.97
59009;BME280;44794;42.652;23.318;2023-06-26T06:26:20;94393.97;;;26.40;61.90
59009;BME280;44794;42.652;23.318;2023-06-26T06:28:45;94384.00;;;25.08;66.60
59009;BME280;44794;42.652;23.318;2023-06-26T06:31:11;94367.63;;;24.46;73.86
59009;BME280;44794;42.652;23.318;2023-06-26T06:33:36;94362.97;;;24.02;76.93
59009;BME280;44794;42.652;23.318;2023-06-26T06:36:02;94371.97;;;23.60;80.16
59009;BME280;44794;42.652;23.318;2023-06-26T06:38:27;94365.94;;;23.79;80.34
59009;BME280;44794;42.652;23.318;2023-06-26T06:40:53;94362.13;;;23.88;80.60
59009;BME280;44794;42.652;23.318;2023-06-26T06:43:18;94372.47;;;24.30;76.69
59009;BME280;44794;42.652;23.318;2023-06-26T06:45:44;94373.19;;;25.09;74.42
59009;BME280;44794;42.652;23.318;2023-06-26T06:48:10;94382.75;;;26.62;67.21
59009;BME280;44794;42.652;23.318;2023-06-26T06:50:35;94392.41;;;28.57;56.49
59009;BME280;44794;42.652;23.318;2023-06-26T06:53:01;94394.97;;;27.56;56.97
59009;BME280;44794;42.652;23.318;2023-06-26T06:55:26;94391.69;;;25.87;62.42
59009;BME280;44794;42.652;23.318;2023-06-26T06:57:52;94369.31;;;24.80;70.57
59009;BME280;44794;42.652;23.318;2023-06-26T07:00:18;94367.03;;;24.90;72.17
59009;BME280;44794;42.652;23.318;2023-06-26T07:02:45;94362.47;;;24.38;72.42
59009;BME280;44794;42.652;23.318;2023-06-26T07:05:11;94362.06;;;23.75;77.13
59009;BME280;44794;42.652;23.318;2023-06-26T07:07:37;94349.63;;;23.08;82.75
59009;BME280;44794;42.652;23.318;2023-06-26T07:10:09;94363.81;;;24.02;76.78
59009;BME280;44794;42.652;23.318;2023-06-26T07:12:35;94371.94;;;26.14;64.47
59009;BME280;44794;42.652;23.318;2023-06-26T07:15:01;94377.81;;;27.70;56.95
59009;BME280;44794;42.652;23.318;2023-06-26T07:17:28;94381.88;;;28.91;53.06
59009;BME280;44794;42.652;23.318;2023-06-26T07:19:53;94384.69;;;29.07;49.02
59009;BME280;44794;42.652;23.318;2023-06-26T07:22:19;94387.91;;;29.39;48.17
59009;BME280;44794;42.652;23.318;2023-06-26T07:24:46;94396.97;;;30.06;45.98
59009;BME280;44794;42.652;23.318;2023-06-26T07:27:16;94393.44;;;30.68;46.19
59009;BME280;44794;42.652;23.318;2023-06-26T07:29:42;94394.66;;;31.98;41.79
59009;BME280;44794;42.652;23.318;2023-06-26T07:32:07;94391.03;;;29.47;46.72
59009;BME280;44794;42.652;23.318;2023-06-26T07:34:33;94386.13;;;30.63;46.43
59009;BME280;44794;42.652;23.318;2023-06-26T07:36:59;94398.75;;;32.60;40.77
59009;BME280;44794;42.652;23.318;2023-06-26T07:39:24;94399.69;;;31.78;41.14
59009;BME280;44794;42.652;23.318;2023-06-26T07:41:49;94395.31;;;31.72;42.02
59009;BME280;44794;42.652;23.318;2023-06-26T07:44:15;94392.56;;;30.62;43.67
59009;BME280;44794;42.652;23.318;2023-06-26T07:46:41;94398.94;;;31.01;42.03
59009;BME280;44794;42.652;23.318;2023-06-26T07:49:06;94407.06;;;30.78;40.93
59009;BME280;44794;42.652;23.318;2023-06-26T07:51:32;94397.94;;;31.67;38.86
59009;BME280;44794;42.652;23.318;2023-06-26T07:53:57;94411.56;;;33.00;36.11
59009;BME280;44794;42.652;23.318;2023-06-26T07:56:23;94400.47;;;33.18;36.77
59009;BME280;44794;42.652;23.318;2023-06-26T07:58:48;94397.94;;;31.67;39.88
59009;BME280;44794;42.652;23.318;2023-06-26T08:01:13;94405.56;;;31.42;40.16
59009;BME280;44794;42.652;23.318;2023-06-26T08:03:39;94400.50;;;31.29;39.89
59009;BME280;44794;42.652;23.318;2023-06-26T08:06:05;94404.47;;;30.44;40.78
59009;BME280;44794;42.652;23.318;2023-06-26T08:08:31;94403.19;;;30.46;41.59
59009;BME280;44794;42.652;23.318;2023-06-26T08:10:56;94390.50;;;31.91;38.24
59009;BME280;44794;42.652;23.318;2023-06-26T08:13:22;94391.72;;;32.59;38.54
59009;BME280;44794;42.652;23.318;2023-06-26T08:15:47;94401.69;;;30.78;41.12
59009;BME280;44794;42.652;23.318;2023-06-26T08:18:13;94390.94;;;29.99;42.00
59009;BME280;44794;42.652;23.318;2023-06-26T08:20:38;94390.19;;;30.94;39.76
59009;BME280;44794;42.652;23.318;2023-06-26T08:23:04;94392.31;;;30.13;40.40
59009;BME280;44794;42.652;23.318;2023-06-26T08:25:29;94379.47;;;28.24;44.26
59009;BME280;44794;42.652;23.318;2023-06-26T08:27:55;94373.91;;;26.99;47.90
59009;BME280;44794;42.652;23.318;2023-06-26T08:30:21;94372.09;;;25.56;53.27
59009;BME280;44794;42.652;23.318;2023-06-26T08:32:47;94359.50;;;24.87;58.22
59009;BME280;44794;42.652;23.318;2023-06-26T08:35:12;94351.31;;;25.07;60.52
59009;BME280;44794;42.652;23.318;2023-06-26T08:37:38;94366.66;;;26.07;57.74
59009;BME280;44794;42.652;23.318;2023-06-26T08:40:04;94364.47;;;26.29;57.97
59009;BME280;44794;42.652;23.318;2023-06-26T08:42:30;94362.03;;;26.27;57.70
59009;BME280;44794;42.652;23.318;2023-06-26T08:44:55;94369.03;;;25.78;57.59
59009;BME280;44794;42.652;23.318;2023-06-26T08:47:21;94367.19;;;25.59;57.78
59009;BME280;44794;42.652;23.318;2023-06-26T08:50:04;94368.41;;;25.63;59.02
59009;BME280;44794;42.652;23.318;2023-06-26T08:52:53;94368.75;;;25.99;55.66
59009;BME280;44794;42.652;23.318;2023-06-26T08:55:20;94375.34;;;26.34;52.98
59009;BME280;44794;42.652;23.318;2023-06-26T08:57:52;94370.59;;;26.36;52.82
59009;BME280;44794;42.652;23.318;2023-06-26T09:00:18;94363.72;;;25.78;54.25
59009;BME280;44794;42.652;23.318;2023-06-26T09:02:45;94367.56;;;25.76;55.74
59009;BME280;44794;42.652;23.318;2023-06-26T09:05:11;94365.59;;;25.45;54.73
59009;BME280;44794;42.652;23.318;2023-06-26T09:07:36;94358.09;;;25.99;54.81
59009;BME280;44794;42.652;23.318;2023-06-26T09:10:02;94370.31;;;26.13;54.50
59009;BME280;44794;42.652;23.318;2023-06-26T09:12:28;94370.19;;;25.95;55.20
59009;BME280;44794;42.652;23.318;2023-06-26T09:14:55;94363.53;;;25.41;58.53
59009;BME280;44794;42.652;23.318;2023-06-26T09:17:25;94354.34;;;25.43;58.94
59009;BME280;44794;42.652;23.318;2023-06-26T09:19:54;94353.97;;;26.03;56.71
59009;BME280;44794;42.652;23.318;2023-06-26T09:22:19;94365.47;;;26.71;55.56
59009;BME280;44794;42.652;23.318;2023-06-26T09:24:45;94356.25;;;25.99;53.89
59009;BME280;44794;42.652;23.318;2023-06-26T09:27:11;94363.09;;;25.63;54.42
59009;BME280;44794;42.652;23.318;2023-06-26T09:29:37;94368.34;;;25.89;52.95
59009;BME280;44794;42.652;23.318;2023-06-26T09:32:03;94357.81;;;25.44;54.65
59009;BME280;44794;42.652;23.318;2023-06-26T09:34:32;94356.75;;;25.64;55.46
59009;BME280;44794;42.652;23.318;2023-06-26T09:36:58;94366.13;;;25.73;57.01
59009;BME280;44794;42.652;23.318;2023-06-26T09:39:24;94355.25;;;26.31;56.69
59009;BME280;44794;42.652;23.318;2023-06-26T09:41:50;94354.44;;;25.93;54.67
59009;BME280;44794;42.652;23.318;2023-06-26T09:44:15;94350.34;;;25.91;54.12
59009;BME280;44794;42.652;23.318;2023-06-26T09:46:40;94346.78;;;25.34;56.07
59009;BME280;44794;42.652;23.318;2023-06-26T09:49:09;94362.34;;;25.04;56.31
59009;BME280;44794;42.652;23.318;2023-06-26T09:51:39;94354.16;;;24.61;56.74
59009;BME280;44794;42.652;23.318;2023-06-26T09:54:06;94344.97;;;24.96;55.60
59009;BME280;44794;42.652;23.318;2023-06-26T09:56:33;94356.38;;;25.61;55.17
59009;BME280;44794;42.652;23.318;2023-06-26T09:59:00;94351.78;;;25.87;53.77
59009;BME280;44794;42.652;23.318;2023-06-26T10:01:30;94359.44;;;25.51;52.31
59009;BME280;44794;42.652;23.318;2023-06-26T10:03:56;94355.31;;;25.75;52.09
59009;BME280;44794;42.652;23.318;2023-06-26T10:06:28;94357.56;;;25.71;52.19
59009;BME280;44794;42.652;23.318;2023-06-26T10:08:56;94360.66;;;25.55;52.22
59009;BME280;44794;42.652;23.318;2023-06-26T10:11:25;94348.59;;;25.40;52.50
59009;BME280;44794;42.652;23.318;2023-06-26T10:13:55;94354.28;;;25.63;52.17
59009;BME280;44794;42.652;23.318;2023-06-26T10:16:26;94346.94;;;25.58;50.78
59009;BME280;44794;42.652;23.318;2023-06-26T10:19:02;94346.78;;;26.10;50.46
59009;BME280;44794;42.652;23.318;2023-06-26T10:21:29;94350.03;;;25.55;51.70
59009;BME280;44794;42.652;23.318;2023-06-26T10:23:56;94352.16;;;25.97;50.52
59009;BME280;44794;42.652;23.318;2023-06-26T10:26:23;94352.13;;;26.47;50.09
59009;BME280;44794;42.652;23.318;2023-06-26T10:28:50;94346.00;;;26.40;49.72
59009;BME280;44794;42.652;23.318;2023-06-26T10:31:22;94355.06;;;25.82;50.14
59009;BME280;44794;42.652;23.318;2023-06-26T10:33:49;94347.22;;;25.31;50.76
59009;BME280;44794;42.652;23.318;2023-06-26T10:36:27;94340.66;;;25.27;51.38
59009;BME280;44794;42.652;23.318;2023-06-26T10:38:58;94331.28;;;24.79;52.27
59009;BME280;44794;42.652;23.318;2023-06-26T10:41:25;94344.34;;;24.68;52.76
59009;BME280;44794;42.652;23.318;2023-06-26T10:46:25;94338.63;;;24.84;49.50
59009;BME280;44794;42.652;23.318;2023-06-26T10:48:57;94353.78;;;24.83;51.25
59009;BME280;44794;42.652;23.318;2023-06-26T10:51:25;94340.66;;;24.82;52.02
59009;BME280;44794;42.652;23.318;2023-06-26T10:53:57;94344.16;;;24.69;51.14
59009;BME280;44794;42.652;23.318;2023-06-26T10:56:45;94328.41;;;25.00;52.11
59009;BME280;44794;42.652;23.318;2023-06-26T11:01:41;94326.75;;;25.05;52.47
59009;BME280;44794;42.652;23.318;2023-06-26T11:04:08;94328.19;;;25.21;53.26
59009;BME280;44794;42.652;23.318;2023-06-26T11:06:34;94336.38;;;25.06;53.33
59009;BME280;44794;42.652;23.318;2023-06-26T11:09:15;94343.91;;;25.42;52.22
59009;BME280;44794;42.652;23.318;2023-06-26T11:14:19;94329.19;;;25.39;53.73
59009;BME280;44794;42.652;23.318;2023-06-26T11:16:45;94343.91;;;25.48;51.32
59009;BME280;44794;42.652;23.318;2023-06-26T11:19:11;94337.38;;;25.38;50.43
59009;BME280;44794;42.652;23.318;2023-06-26T11:21:39;94339.78;;;25.52;50.26
59009;BME280;44794;42.652;23.318;2023-06-26T11:24:09;94330.16;;;26.14;50.23
59009;BME280;44794;42.652;23.318;2023-06-26T11:26:42;94323.44;;;26.49;49.63
59009;BME280;44794;42.652;23.318;2023-06-26T11:29:09;94331.44;;;26.73;48.44
59009;BME280;44794;42.652;23.318;2023-06-26T11:31:37;94334.31;;;26.04;48.13
59009;BME280;44794;42.652;23.318;2023-06-26T11:34:04;94332.66;;;25.46;48.71
59009;BME280;44794;42.652;23.318;2023-06-26T11:36:31;94335.41;;;25.90;49.48
59009;BME280;44794;42.652;23.318;2023-06-26T11:39:01;94342.06;;;26.12;48.85
59009;BME280;44794;42.652;23.318;2023-06-26T11:41:32;94339.75;;;25.65;48.17
59009;BME280;44794;42.652;23.318;2023-06-26T11:44:01;94323.72;;;25.15;49.03
59009;BME280;44794;42.652;23.318;2023-06-26T11:46:27;94327.00;;;24.85;50.13
59009;BME280;44794;42.652;23.318;2023-06-26T11:48:53;94323.72;;;25.15;50.39
59009;BME280;44794;42.652;23.318;2023-06-26T11:51:19;94332.66;;;25.46;50.47
59009;BME280;44794;42.652;23.318;2023-06-26T11:53:46;94327.66;;;25.82;49.52
59009;BME280;44794;42.652;23.318;2023-06-26T11:56:13;94320.94;;;25.60;49.89
59009;BME280;44794;42.652;23.318;2023-06-26T12:01:41;94321.13;;;25.65;50.27
59009;BME280;44794;42.652;23.318;2023-06-26T12:04:11;94325.84;;;25.76;49.36
59009;BME280;44794;42.652;23.318;2023-06-26T12:06:40;94312.56;;;25.57;49.96
59009;BME280;44794;42.652;23.318;2023-06-26T12:09:09;94315.66;;;25.47;50.60
59009;BME280;44794;42.652;23.318;2023-06-26T12:11:37;94313.03;;;25.97;50.79
59009;BME280;44794;42.652;23.318;2023-06-26T12:14:05;94324.06;;;26.07;47.71
59009;BME280;44794;42.652;23.318;2023-06-26T12:16:33;94315.44;;;26.12;47.25
59009;BME280;44794;42.652;23.318;2023-06-26T12:19:04;94317.94;;;26.44;47.93
59009;BME280;44794;42.652;23.318;2023-06-26T12:24:13;94315.03;;;26.08;48.61
59009;BME280;44794;42.652;23.318;2023-06-26T12:26:41;94316.81;;;25.71;48.79
59009;BME280;44794;42.652;23.318;2023-06-26T12:29:10;94311.13;;;25.61;48.98
59009;BME280;44794;42.652;23.318;2023-06-26T12:31:52;94317.03;;;25.69;48.83
59009;BME280;44794;42.652;23.318;2023-06-26T12:34:28;94325.47;;;25.53;48.89
59009;BME280;44794;42.652;23.318;2023-06-26T12:36:53;94322.81;;;25.53;48.90
59009;BME280;44794;42.652;23.318;2023-06-26T12:39:24;94317.66;;;25.65;48.87
59009;BME280;44794;42.652;23.318;2023-06-26T12:41:54;94298.63;;;25.74;49.29
59009;BME280;44794;42.652;23.318;2023-06-26T12:44:21;94316.69;;;26.09;48.92
59009;BME280;44794;42.652;23.318;2023-06-26T12:46:52;94312.47;;;26.26;49.98
59009;BME280;44794;42.652;23.318;2023-06-26T12:49:18;94318.97;;;26.37;48.17
59009;BME280;44794;42.652;23.318;2023-06-26T12:51:44;94316.31;;;26.37;48.65
59009;BME280;44794;42.652;23.318;2023-06-26T12:54:10;94310.97;;;26.37;48.72
59009;BME280;44794;42.652;23.318;2023-06-26T12:56:36;94307.31;;;25.94;49.43
59009;BME280;44794;42.652;23.318;2023-06-26T12:59:01;94302.91;;;25.75;51.13